»·PEaware :: SWA5845 KSFO-KPHX

SWA5845 :: KSFO-KPHX

FLIGHT INFORMATION

Flight Status: Arrived
Operator:
Southwest Airlines
More flights by this operator :: More flights under this callsign
Pilot: Drew L. (13237)
Aircraft: BOEING 737-800
(B738)
More flights by this aircraft type
Origin: KSFO San Francisco Intl
United States
Destination: KPHX Phoenix Sky Harbor Intl
United States
More flights between these airports :: More routes between these airports
Route: +SSTIK3 LOSHN BOILE BLH HYDRR1
File this flight plan on PilotEdge
Remarks: PBN / A1B1C1D1S1S2 NAV / RNVD1E2A1 DAT / V DOF / 171007 REG / N806SB EET / KZAK0020 KZLA0027 KZAB0107 RMK / NRP SIMBRIEF
Altitude:
(Current/Filed)
35,000ft
Speed:
(Current/Filed)
442kts
Departed: 07-Oct-17 01:20 PM
Arrived: 07-Oct-17 02:54 PM
Distance/Time
Traveled:
565nm/1:33
Distance/Time
To Go:
Arrived

Flight Plot

Page will automatically refresh every two minutes.


Map Options




Map Legend


Flown Route
Filed Route
Departure Airport
Arrival Airport
Navaid (VOR, NDB)
Fix

Horizontal Profiles

Position Reports

Time Latitude Longitude Heading Altitude Ground
Speed
07-Oct-17 11:43 37.612636 -122.384669 6 20ft 0kts
07-Oct-17 11:44 37.612636 -122.384669 6 20ft 0kts
07-Oct-17 11:45 37.612636 -122.384669 6 21ft 0kts
07-Oct-17 11:46 37.612636 -122.384669 6 21ft 0kts
07-Oct-17 11:47 37.612636 -122.384669 6 21ft 0kts
07-Oct-17 11:48 37.612636 -122.384669 6 21ft 0kts
07-Oct-17 11:49 37.612636 -122.384669 6 21ft 0kts
07-Oct-17 11:50 37.612636 -122.384669 6 21ft 0kts
07-Oct-17 11:51 37.612636 -122.384669 6 21ft 0kts
07-Oct-17 11:52 37.612636 -122.384669 6 21ft 0kts
07-Oct-17 11:53 37.612636 -122.384669 6 21ft 0kts
07-Oct-17 11:54 37.612636 -122.384669 6 21ft 0kts
07-Oct-17 11:55 37.612636 -122.384669 6 21ft 0kts
07-Oct-17 11:56 37.612636 -122.384669 6 21ft 0kts
07-Oct-17 11:57 37.612636 -122.384669 6 21ft 0kts
07-Oct-17 11:58 37.612636 -122.384669 6 21ft 0kts
07-Oct-17 11:59 37.612636 -122.384669 6 21ft 0kts
07-Oct-17 12:00 37.612636 -122.384669 6 21ft 0kts
07-Oct-17 12:01 37.612636 -122.384669 6 21ft 0kts
07-Oct-17 12:02 37.612636 -122.384669 6 21ft 0kts
07-Oct-17 12:03 37.612636 -122.384669 6 21ft 0kts
07-Oct-17 12:04 37.612636 -122.384669 6 21ft 0kts
07-Oct-17 12:05 37.612636 -122.384669 6 21ft 0kts
07-Oct-17 12:06 37.612636 -122.384669 6 21ft 0kts
07-Oct-17 12:07 37.612636 -122.384669 6 21ft 0kts
07-Oct-17 12:08 37.612636 -122.384669 6 21ft 0kts
07-Oct-17 12:09 37.612636 -122.384669 6 21ft 0kts
07-Oct-17 12:10 37.612636 -122.384669 6 21ft 0kts
07-Oct-17 12:11 37.612636 -122.384669 6 21ft 0kts
07-Oct-17 12:12 37.612636 -122.384669 6 21ft 0kts
07-Oct-17 12:13 37.612636 -122.384669 6 21ft 0kts
07-Oct-17 12:14 37.612636 -122.384669 6 21ft 0kts
07-Oct-17 12:15 37.612636 -122.384669 6 21ft 0kts
07-Oct-17 12:16 37.612636 -122.384669 6 21ft 0kts
07-Oct-17 12:17 37.612636 -122.384669 6 21ft 0kts
07-Oct-17 12:18 37.612636 -122.384669 6 21ft 0kts
07-Oct-17 12:19 37.612636 -122.384669 6 21ft 0kts
07-Oct-17 12:20 37.612519 -122.384685 6 21ft 2kts
07-Oct-17 12:21 37.611972 -122.384761 6 20ft 2kts
07-Oct-17 12:22 37.611403 -122.384840 6 20ft 2kts
07-Oct-17 12:23 37.610981 -122.385290 81 21ft 2kts
07-Oct-17 12:24 37.611026 -122.385644 114 20ft 0kts
07-Oct-17 12:25 37.611026 -122.385644 114 20ft 0kts
07-Oct-17 12:26 37.610968 -122.385489 115 20ft 5kts
07-Oct-17 12:27 37.610532 -122.384460 120 21ft 9kts
07-Oct-17 12:28 37.608493 -122.383924 116 21ft 0kts
07-Oct-17 12:29 37.608493 -122.383924 116 21ft 0kts
07-Oct-17 12:30 37.608493 -122.383924 116 21ft 0kts
07-Oct-17 12:31 37.608988 -122.383243 308 21ft 9kts
07-Oct-17 12:32 37.611412 -122.384095 296 20ft 10kts
07-Oct-17 12:33 37.612233 -122.384145 31 21ft 0kts
07-Oct-17 12:34 37.612233 -122.384145 31 21ft 0kts
07-Oct-17 12:35 37.612233 -122.384145 31 21ft 0kts
07-Oct-17 12:36 37.612233 -122.384145 31 21ft 0kts
07-Oct-17 12:37 37.612233 -122.384145 31 21ft 0kts
07-Oct-17 12:38 37.612233 -122.384145 31 21ft 0kts
07-Oct-17 12:39 37.612233 -122.384145 31 21ft 0kts
07-Oct-17 12:40 37.612233 -122.384145 31 21ft 0kts
07-Oct-17 12:41 37.612233 -122.384145 31 21ft 0kts
07-Oct-17 12:42 37.612233 -122.384145 31 21ft 0kts
07-Oct-17 12:43 37.612233 -122.384145 31 21ft 0kts
07-Oct-17 12:44 37.612233 -122.384145 31 21ft 0kts
07-Oct-17 12:45 37.612233 -122.384145 31 21ft 0kts
07-Oct-17 12:46 37.612233 -122.384145 31 21ft 0kts
07-Oct-17 12:47 37.612233 -122.384145 31 21ft 0kts
07-Oct-17 12:48 37.612233 -122.384145 31 21ft 0kts
07-Oct-17 12:49 37.612233 -122.384145 31 21ft 0kts
07-Oct-17 12:50 37.612233 -122.384145 31 21ft 0kts
07-Oct-17 12:51 37.612233 -122.384145 31 21ft 0kts
07-Oct-17 12:52 37.612233 -122.384145 31 21ft 0kts
07-Oct-17 12:53 37.612233 -122.384145 31 21ft 0kts
07-Oct-17 12:54 37.612233 -122.384145 31 21ft 0kts
07-Oct-17 12:55 37.612233 -122.384145 31 21ft 0kts
07-Oct-17 12:57 37.612233 -122.384145 31 21ft 0kts
07-Oct-17 12:57 37.612233 -122.384145 31 21ft 0kts
07-Oct-17 12:58 37.612233 -122.384145 31 21ft 0kts
07-Oct-17 12:59 37.612233 -122.384145 31 21ft 0kts
07-Oct-17 13:01 37.611775 -122.384481 29 21ft 2kts
07-Oct-17 13:01 37.611362 -122.384779 29 20ft 2kts
07-Oct-17 13:02 37.610918 -122.385217 78 21ft 2kts
07-Oct-17 13:03 37.610942 -122.385454 118 20ft 0kts
07-Oct-17 13:04 37.610942 -122.385454 118 20ft 0kts
07-Oct-17 13:05 37.610942 -122.385454 118 20ft 0kts
07-Oct-17 13:06 37.610942 -122.385454 118 20ft 0kts
07-Oct-17 13:07 37.610942 -122.385454 118 20ft 0kts
07-Oct-17 13:08 37.610942 -122.385454 118 20ft 0kts
07-Oct-17 13:09 37.610942 -122.385454 118 20ft 0kts
07-Oct-17 13:10 37.610942 -122.385454 118 20ft 0kts
07-Oct-17 13:11 37.610942 -122.385454 118 20ft 0kts
07-Oct-17 13:12 37.610942 -122.385454 118 20ft 0kts
07-Oct-17 13:13 37.610942 -122.385454 118 20ft 0kts
07-Oct-17 13:14 37.610942 -122.385454 118 20ft 0kts
07-Oct-17 13:15 37.610942 -122.385454 118 20ft 0kts
07-Oct-17 13:16 37.610942 -122.385454 118 20ft 0kts
07-Oct-17 13:17 37.610896 -122.385344 117 20ft 1kts
07-Oct-17 13:18 37.610641 -122.384729 117 21ft 0kts
07-Oct-17 13:19 37.610274 -122.384192 162 20ft 10kts
07-Oct-17 13:20 37.609185 -122.383629 123 20ft 2kts
07-Oct-17 13:21 37.609161 -122.383582 123 20ft 0kts
07-Oct-17 13:22 37.609033 -122.383333 123 20ft 6kts
07-Oct-17 13:23 37.608891 -122.382278 27 21ft 0kts
07-Oct-17 13:24 37.616643 -122.377106 26 21ft 111kts
07-Oct-17 13:25 37.657103 -122.355419 352 1256ft 188kts
07-Oct-17 13:26 37.704774 -122.391831 286 2607ft 253kts
07-Oct-17 13:27 37.667768 -122.455662 176 5320ft 285kts
07-Oct-17 13:28 37.589368 -122.453971 189 7997ft 289kts
07-Oct-17 13:29 37.510875 -122.467814 173 10281ft 294kts
07-Oct-17 13:30 37.446729 -122.402171 133 12426ft 309kts
07-Oct-17 13:31 37.390101 -122.318655 131 14356ft 324kts
07-Oct-17 13:32 37.331932 -122.229230 131 16651ft 341kts
07-Oct-17 13:33 37.271487 -122.135890 131 19259ft 353kts
07-Oct-17 13:34 37.208450 -122.038799 131 21571ft 368kts
07-Oct-17 13:35 37.143335 -121.938793 132 23648ft 381kts
07-Oct-17 13:36 37.075136 -121.834407 132 25542ft 395kts
07-Oct-17 13:37 37.003911 -121.725776 132 26858ft 421kts
07-Oct-17 13:38 36.927203 -121.609097 132 28072ft 448kts
07-Oct-17 13:39 36.851159 -121.493699 132 30085ft 447kts
07-Oct-17 13:40 36.772876 -121.375375 132 31938ft 443kts
07-Oct-17 13:41 36.713826 -121.286427 133 33112ft 441kts
07-Oct-17 13:42 36.634784 -121.167922 133 33817ft 458kts
07-Oct-17 13:43 36.552848 -121.045360 133 34555ft 473kts
07-Oct-17 13:44 36.466719 -120.916775 133 34917ft 492kts
07-Oct-17 13:45 36.380348 -120.787404 133 34942ft 494kts
07-Oct-17 13:46 36.292862 -120.656884 133 34944ft 492kts
07-Oct-17 13:47 36.205740 -120.527441 133 34945ft 492kts
07-Oct-17 13:48 36.118091 -120.397711 133 34947ft 492kts
07-Oct-17 13:49 36.038609 -120.281611 131 34933ft 490kts
07-Oct-17 13:50 35.951163 -120.152233 130 34941ft 492kts
07-Oct-17 13:51 35.870330 -120.033678 130 34937ft 492kts
07-Oct-17 13:52 35.823973 -119.966774 131 34938ft 492kts
07-Oct-17 13:53 35.734682 -119.839784 131 34939ft 492kts
07-Oct-17 13:54 35.646002 -119.714116 131 34941ft 492kts
07-Oct-17 13:55 35.562659 -119.596328 132 34917ft 491kts
07-Oct-17 13:56 35.473601 -119.471160 131 34917ft 491kts
07-Oct-17 13:57 35.385151 -119.347166 132 34918ft 491kts
07-Oct-17 13:58 35.298362 -119.225930 132 34912ft 491kts
07-Oct-17 13:59 35.208806 -119.101336 132 34913ft 491kts
07-Oct-17 14:00 35.118843 -118.976564 132 34927ft 490kts
07-Oct-17 14:01 35.029370 -118.852930 132 35050ft 491kts
07-Oct-17 14:02 34.939570 -118.729298 133 35053ft 490kts
07-Oct-17 14:03 34.862795 -118.623959 133 35050ft 490kts
07-Oct-17 14:04 34.772863 -118.500977 133 35013ft 491kts
07-Oct-17 14:05 34.685915 -118.382473 133 34973ft 490kts
07-Oct-17 14:06 34.603864 -118.270981 133 34964ft 489kts
07-Oct-17 14:07 34.513571 -118.148788 133 34966ft 490kts
07-Oct-17 14:08 34.428058 -118.021883 114 34949ft 491kts
07-Oct-17 14:09 34.384506 -117.865760 105 34916ft 491kts
07-Oct-17 14:10 34.346408 -117.707765 105 34916ft 491kts
07-Oct-17 14:11 34.308366 -117.550112 105 34950ft 491kts
07-Oct-17 14:12 34.270101 -117.392502 105 34972ft 492kts
07-Oct-17 14:13 34.233689 -117.243402 106 34966ft 492kts
07-Oct-17 14:14 34.194909 -117.085625 106 35102ft 492kts
07-Oct-17 14:15 34.155988 -116.928169 106 35183ft 492kts
07-Oct-17 14:16 34.116816 -116.770763 106 35186ft 492kts
07-Oct-17 14:17 34.077389 -116.613140 106 35188ft 492kts
07-Oct-17 14:18 34.037829 -116.456021 106 35003ft 491kts
07-Oct-17 14:19 33.999462 -116.304436 106 34994ft 492kts
07-Oct-17 14:20 33.959578 -116.147920 106 34995ft 492kts
07-Oct-17 14:21 33.919333 -115.990828 106 34997ft 492kts
07-Oct-17 14:22 33.879639 -115.836811 106 34993ft 492kts
07-Oct-17 14:23 33.839201 -115.680853 106 34995ft 492kts
07-Oct-17 14:24 33.798436 -115.524469 106 34979ft 492kts
07-Oct-17 14:25 33.757512 -115.368442 106 34753ft 491kts
07-Oct-17 14:26 33.716786 -115.214079 106 33279ft 491kts
07-Oct-17 14:27 33.675593 -115.058645 106 31558ft 495kts
07-Oct-17 14:28 33.636869 -114.913464 106 29929ft 482kts
07-Oct-17 14:29 33.596251 -114.760507 103 28180ft 487kts
07-Oct-17 14:30 33.565331 -114.602790 102 26489ft 489kts
07-Oct-17 14:31 33.534575 -114.444908 102 24798ft 490kts
07-Oct-17 14:32 33.504037 -114.289877 103 23125ft 492kts
07-Oct-17 14:33 33.473070 -114.133896 103 22796ft 461kts
07-Oct-17 14:34 33.443013 -113.983329 103 22831ft 469kts
07-Oct-17 14:35 33.413761 -113.837799 103 22771ft 415kts
07-Oct-17 14:36 33.386789 -113.704200 103 22835ft 419kts
07-Oct-17 14:37 33.359495 -113.569764 103 22800ft 417kts
07-Oct-17 14:38 33.332856 -113.434982 101 20886ft 409kts
07-Oct-17 14:39 33.310653 -113.306516 102 18691ft 392kts
07-Oct-17 14:40 33.290613 -113.182916 99 17365ft 370kts
07-Oct-17 14:41 33.275668 -113.063616 89 17098ft 365kts
07-Oct-17 14:42 33.277630 -112.942792 87 16921ft 362kts
07-Oct-17 14:43 33.280375 -112.828521 85 16569ft 342kts
07-Oct-17 14:44 33.289604 -112.714978 83 16445ft 348kts
07-Oct-17 14:45 33.298495 -112.603123 83 16193ft 340kts
07-Oct-17 14:46 33.309802 -112.491440 81 14645ft 333kts
07-Oct-17 14:47 33.320887 -112.384617 81 13020ft 317kts
07-Oct-17 14:48 33.330065 -112.287283 83 11286ft 310kts
07-Oct-17 14:49 33.339150 -112.187047 83 9689ft 300kts
07-Oct-17 14:50 33.347017 -112.090117 88 8915ft 293kts
07-Oct-17 14:51 33.346273 -111.994215 89 7822ft 282kts
07-Oct-17 14:52 33.350015 -111.902994 83 6290ft 268kts
07-Oct-17 14:53 33.364210 -111.820742 35 4721ft 249kts
07-Oct-17 14:54 33.418698 -111.830321 301 3275ft 218kts
07-Oct-17 14:55 33.428531 -111.893333 269 2983ft 179kts
07-Oct-17 14:56 33.428798 -111.948151 269 2007ft 147kts
07-Oct-17 14:57 33.428844 -111.995013 268 1274ft 143kts
07-Oct-17 14:58 33.428866 -112.019286 270 1142ft 7kts
07-Oct-17 14:59 33.429962 -112.019985 89 1142ft 18kts
07-Oct-17 15:00 33.431198 -112.015727 345 1142ft 8kts
07-Oct-17 15:01 33.432902 -112.014292 87 1142ft 8kts
07-Oct-17 15:02 33.432886 -112.008661 90 1142ft 16kts
07-Oct-17 15:03 33.432883 -112.006046 90 1142ft 8kts
07-Oct-17 15:05 33.432835 -112.002276 89 1142ft 2kts
07-Oct-17 15:05 33.432837 -112.002043 89 1142ft 0kts
07-Oct-17 15:07 33.432837 -112.001875 90 1142ft 0kts
07-Oct-17 15:07 33.432836 -112.001421 90 1142ft 11kts
07-Oct-17 15:08 33.433400 -111.998970 3 1142ft 1kts
07-Oct-17 15:10 33.433404 -111.998970 3 1142ft 0kts
07-Oct-17 15:10 33.433404 -111.998970 3 1142ft 0kts
07-Oct-17 15:11 33.433404 -111.998970 3 1142ft 0kts
07-Oct-17 15:12 33.433404 -111.998970 3 1142ft 0kts

Navigation Log

Ident Type
1. KSFO Airport
2. BOILE Fix
3. BLH Navaid
4. KPHX Airport